Time;durP1;ratioP1;P1;durP2;ratioP2;P2;SDS_P1;SDS_P2;PMS_P1;PMS_P2;Temp;Humidity;BMP_temperature;BMP_pressure;BME280_temperature;BME280_humidity;BME280_pressure;Samples;Min_cycle;Max_cycle;Signal;HPM_P1;HPM_P2
2021/05/28 00:02:21;;;;;;;20.10;13.23;;;9.40;99.90;;;;;;4999720;28;20057;-57
2021/05/28 00:04:46;;;;;;;26.38;14.73;;;9.30;99.90;;;;;;4991607;28;20040;-55
2021/05/28 00:07:12;;;;;;;27.90;14.32;;;9.20;99.90;;;;;;4999704;28;20040;-57
2021/05/28 00:09:39;;;;;;;31.30;15.15;;;9.10;99.90;;;;;;4995525;28;20048;-57
2021/05/28 00:12:06;;;;;;;29.75;14.88;;;9.10;99.90;;;;;;4991898;28;20030;-57
2021/05/28 00:14:32;;;;;;;30.73;17.00;;;9.00;99.90;;;;;;4998916;28;20033;-55
2021/05/28 00:16:58;;;;;;;32.88;15.82;;;8.90;99.90;;;;;;4995709;28;20030;-56
2021/05/28 00:19:23;;;;;;;31.40;18.50;;;8.80;99.90;;;;;;4997532;28;20034;-58
2021/05/28 00:21:49;;;;;;;30.65;17.25;;;8.80;99.90;;;;;;4994310;28;20124;-56
2021/05/28 00:24:15;;;;;;;46.05;19.42;;;8.80;99.90;;;;;;4994235;28;20045;-56
2021/05/28 00:26:40;;;;;;;39.88;19.98;;;8.80;99.90;;;;;;4992018;28;20415;-58
2021/05/28 00:29:06;;;;;;;28.15;19.00;;;8.80;99.90;;;;;;4993129;28;20109;-58
2021/05/28 00:31:31;;;;;;;34.22;20.05;;;8.80;99.90;;;;;;4997359;28;20026;-58
2021/05/28 00:33:57;;;;;;;34.05;19.13;;;8.80;99.90;;;;;;4994478;28;20483;-56
2021/05/28 00:36:23;;;;;;;39.42;20.80;;;8.80;99.90;;;;;;5005090;28;20045;-56
2021/05/28 00:38:48;;;;;;;31.88;19.70;;;8.80;99.90;;;;;;4996165;28;20037;-55
2021/05/28 00:41:14;;;;;;;35.70;21.38;;;8.80;99.90;;;;;;4997164;28;20025;-58
2021/05/28 00:43:40;;;;;;;39.22;22.40;;;8.90;99.90;;;;;;4993490;28;20085;-56
2021/05/28 00:46:06;;;;;;;35.65;21.83;;;8.90;99.90;;;;;;4991472;28;20072;-57
2021/05/28 00:48:31;;;;;;;37.55;21.08;;;9.00;99.90;;;;;;4996923;28;20030;-57
2021/05/28 00:50:57;;;;;;;33.95;21.95;;;9.00;99.90;;;;;;4999822;28;20026;-53
2021/05/28 00:53:24;;;;;;;45.58;21.92;;;9.00;99.90;;;;;;4995105;28;20092;-55
2021/05/28 00:55:50;;;;;;;36.08;22.13;;;9.00;99.90;;;;;;4998909;28;20034;-55
2021/05/28 00:58:16;;;;;;;46.45;24.08;;;9.00;99.90;;;;;;4999130;28;20046;-59
2021/05/28 01:00:42;;;;;;;32.97;21.45;;;9.10;99.90;;;;;;5000407;28;20085;-55
2021/05/28 01:03:08;;;;;;;34.88;22.77;;;9.10;99.90;;;;;;4997841;28;20026;-56
2021/05/28 01:05:33;;;;;;;39.97;20.38;;;9.10;99.90;;;;;;4999243;28;20500;-58
2021/05/28 01:07:59;;;;;;;40.08;20.73;;;9.10;99.90;;;;;;5003665;28;20076;-57
2021/05/28 01:10:25;;;;;;;33.45;20.63;;;9.20;99.90;;;;;;5008126;28;20100;-56
2021/05/28 01:12:51;;;;;;;31.95;21.50;;;9.20;99.90;;;;;;4999711;28;20022;-57
2021/05/28 01:15:16;;;;;;;35.65;20.17;;;9.20;99.90;;;;;;5000499;28;20034;-54
2021/05/28 01:17:42;;;;;;;33.50;20.08;;;9.20;99.90;;;;;;4997963;28;20030;-56
2021/05/28 01:20:10;;;;;;;36.58;21.05;;;9.20;99.90;;;;;;5004101;28;20065;-55
2021/05/28 01:22:37;;;;;;;35.08;20.33;;;9.20;99.90;;;;;;4998477;28;20041;-57
2021/05/28 01:25:04;;;;;;;40.85;21.67;;;9.20;99.90;;;;;;5002728;28;20030;-55
2021/05/28 01:27:30;;;;;;;40.45;23.58;;;9.20;99.90;;;;;;5001330;28;20454;-57
2021/05/28 01:29:56;;;;;;;37.95;21.88;;;9.20;99.90;;;;;;5006866;28;20025;-59
2021/05/28 01:32:22;;;;;;;38.65;21.73;;;9.20;99.90;;;;;;5022821;28;20030;-58
2021/05/28 01:34:48;;;;;;;41.03;21.25;;;9.20;99.90;;;;;;5012849;28;20526;-57
2021/05/28 01:37:14;;;;;;;39.45;22.52;;;9.20;99.90;;;;;;5011307;28;20037;-57
2021/05/28 01:39:58;;;;;;;34.13;21.42;;;9.20;99.90;;;;;;5018260;28;20034;-56
2021/05/28 01:42:23;;;;;;;31.65;20.13;;;9.20;99.90;;;;;;5023289;28;20481;-57
2021/05/28 01:44:49;;;;;;;38.40;21.42;;;9.20;99.90;;;;;;5029022;28;20036;-57
2021/05/28 01:47:15;;;;;;;35.03;19.73;;;9.20;99.90;;;;;;5018987;28;20044;-56
2021/05/28 01:49:41;;;;;;;34.08;22.52;;;9.20;99.90;;;;;;5018220;28;20103;-56
2021/05/28 01:52:11;;;;;;;35.85;21.25;;;9.20;99.90;;;;;;5017321;28;20013;-54
2021/05/28 01:54:38;;;;;;;35.60;22.02;;;9.30;99.90;;;;;;5010155;28;20121;-56
2021/05/28 01:57:05;;;;;;;27.25;20.17;;;9.20;99.90;;;;;;5019002;28;20028;-57
2021/05/28 01:59:31;;;;;;;31.38;21.70;;;9.20;99.90;;;;;;5015086;28;20454;-57
2021/05/28 02:01:56;;;;;;;34.63;20.55;;;9.20;99.90;;;;;;5021227;28;20022;-57
2021/05/28 02:04:23;;;;;;;42.97;22.58;;;9.20;99.90;;;;;;5020748;28;20052;-59
2021/05/28 02:06:50;;;;;;;36.70;21.92;;;9.20;99.90;;;;;;5014091;28;20087;-55
2021/05/28 02:09:16;;;;;;;40.45;22.30;;;9.20;99.90;;;;;;5020618;28;20030;-54
2021/05/28 02:11:42;;;;;;;40.30;22.45;;;9.10;99.90;;;;;;5013146;28;20518;-58
2021/05/28 02:14:07;;;;;;;37.67;21.92;;;9.10;99.90;;;;;;5016521;28;20052;-57
2021/05/28 02:16:34;;;;;;;33.13;21.33;;;9.00;99.90;;;;;;5007225;28;20045;-56
2021/05/28 02:19:00;;;;;;;36.08;22.80;;;8.90;99.90;;;;;;5020444;28;20492;-55
2021/05/28 02:21:27;;;;;;;37.08;21.20;;;8.80;99.90;;;;;;5015471;28;20026;-56
2021/05/28 02:23:52;;;;;;;41.28;20.70;;;8.60;99.90;;;;;;5021915;28;20037;-57
2021/05/28 02:26:18;;;;;;;41.28;23.65;;;8.50;99.90;;;;;;5019790;28;20041;-57
2021/05/28 02:28:44;;;;;;;37.38;21.45;;;8.40;99.90;;;;;;5018505;28;20029;-58
2021/05/28 02:31:09;;;;;;;48.97;26.60;;;8.30;99.90;;;;;;5012014;28;20112;-57
2021/05/28 02:33:36;;;;;;;45.72;26.95;;;8.20;99.90;;;;;;5012215;28;20034;-54
2021/05/28 02:36:03;;;;;;;54.90;28.10;;;8.10;99.90;;;;;;5022700;28;20037;-56
2021/05/28 02:38:28;;;;;;;50.42;28.65;;;8.10;99.90;;;;;;5016453;28;20044;-57
2021/05/28 02:40:54;;;;;;;47.58;28.58;;;8.00;99.90;;;;;;5023580;28;20108;-58
2021/05/28 02:43:19;;;;;;;47.80;27.80;;;8.00;99.90;;;;;;5023929;28;20071;-58
2021/05/28 02:45:45;;;;;;;47.25;28.02;;;8.00;99.90;;;;;;5017939;28;20097;-56
2021/05/28 02:48:11;;;;;;;55.03;29.35;;;7.90;99.90;;;;;;5013720;28;20033;-56
2021/05/28 02:50:36;;;;;;;50.65;27.08;;;7.90;99.90;;;;;;5011784;28;20041;-55
2021/05/28 02:53:02;;;;;;;51.60;26.20;;;7.90;99.90;;;;;;5018038;28;20056;-57
2021/05/28 02:55:32;;;;;;;48.45;25.02;;;7.80;99.90;;;;;;5019576;28;20029;-58
2021/05/28 02:57:57;;;;;;;43.58;25.45;;;7.80;99.90;;;;;;5022258;28;20033;-58
2021/05/28 03:00:24;;;;;;;42.20;26.70;;;7.70;99.90;;;;;;5011043;28;20625;-55
2021/05/28 03:02:53;;;;;;;46.28;26.73;;;7.60;99.90;;;;;;5017680;28;20502;-55
2021/05/28 03:05:19;;;;;;;41.40;25.48;;;7.60;99.90;;;;;;5016092;28;20096;-56
2021/05/28 03:07:44;;;;;;;53.38;28.48;;;7.50;99.90;;;;;;5020713;28;20399;-56
2021/05/28 03:10:11;;;;;;;52.25;28.40;;;7.50;99.90;;;;;;5016588;28;20030;-56
2021/05/28 03:12:37;;;;;;;53.90;28.80;;;7.40;99.90;;;;;;5018706;28;20034;-58
2021/05/28 03:15:04;;;;;;;56.33;28.85;;;7.40;99.90;;;;;;5016169;28;20037;-58
2021/05/28 03:17:29;;;;;;;48.92;30.17;;;7.40;99.90;;;;;;5020023;28;20041;-57
2021/05/28 03:19:55;;;;;;;49.88;29.08;;;7.50;99.90;;;;;;5022331;28;20556;-57
2021/05/28 03:22:36;;;;;;;55.92;29.17;;;7.50;99.90;;;;;;5016004;28;20034;-55
2021/05/28 03:25:08;;;;;;;54.67;31.45;;;7.50;99.90;;;;;;5008006;28;20461;-55
2021/05/28 03:27:35;;;;;;;59.65;31.88;;;7.50;99.90;;;;;;5019752;28;20094;-57
2021/05/28 03:30:01;;;;;;;60.47;31.92;;;7.50;99.90;;;;;;5021311;28;20061;-54
2021/05/28 03:32:26;;;;;;;67.15;34.60;;;7.50;99.90;;;;;;5011329;28;20060;-54
2021/05/28 03:34:53;;;;;;;59.88;32.03;;;7.50;99.90;;;;;;5011606;28;20037;-54
2021/05/28 03:37:20;;;;;;;67.45;30.55;;;7.40;99.90;;;;;;5016804;28;20519;-56
2021/05/28 03:39:49;;;;;;;64.90;31.45;;;7.40;99.90;;;;;;5026067;28;20038;-53
2021/05/28 03:42:15;;;;;;;60.47;31.70;;;7.40;99.90;;;;;;5013832;28;20549;-54
2021/05/28 03:44:40;;;;;;;46.20;27.48;;;7.40;99.90;;;;;;5025313;28;20104;-56
2021/05/28 03:47:06;;;;;;;44.45;26.90;;;7.30;99.90;;;;;;5019206;28;20483;-54
2021/05/28 03:49:32;;;;;;;53.88;26.10;;;7.30;99.90;;;;;;5012031;28;20376;-57
2021/05/28 03:51:57;;;;;;;43.03;26.42;;;7.30;99.90;;;;;;5022944;28;20040;-59
2021/05/28 03:54:23;;;;;;;49.65;26.23;;;7.30;99.90;;;;;;5019051;28;20029;-58
2021/05/28 03:56:49;;;;;;;42.65;26.88;;;7.30;99.90;;;;;;5007303;28;20042;-55
2021/05/28 03:59:15;;;;;;;44.55;27.15;;;7.30;99.90;;;;;;5019269;28;20049;-58
2021/05/28 04:01:41;;;;;;;46.90;26.35;;;7.30;99.90;;;;;;5033841;28;20148;-59
2021/05/28 04:04:06;;;;;;;38.38;24.65;;;7.30;99.90;;;;;;5024763;28;20053;-59
2021/05/28 04:06:32;;;;;;;57.10;23.08;;;7.30;99.90;;;;;;5011235;28;20034;-56
2021/05/28 04:08:58;;;;;;;33.10;22.02;;;7.40;99.90;;;;;;5009669;28;20150;-57
2021/05/28 04:11:24;;;;;;;34.40;21.33;;;7.40;99.90;;;;;;5011724;28;20034;-53
2021/05/28 04:13:50;;;;;;;33.50;22.52;;;7.40;99.90;;;;;;5025480;28;20041;-53
2021/05/28 04:16:16;;;;;;;37.33;23.45;;;7.50;99.90;;;;;;5009702;28;20037;-54
2021/05/28 04:18:41;;;;;;;35.55;22.10;;;7.50;99.90;;;;;;5018314;28;20112;-56
2021/05/28 04:21:07;;;;;;;32.35;20.23;;;7.50;99.90;;;;;;5013842;28;20040;-56
2021/05/28 04:23:33;;;;;;;26.70;19.52;;;7.60;99.90;;;;;;5012056;28;20377;-57
2021/05/28 04:26:00;;;;;;;25.92;18.65;;;7.80;99.90;;;;;;5004822;28;20045;-55
2021/05/28 04:28:27;;;;;;;65.57;14.45;;;8.20;99.90;;;;;;5001104;28;20424;-56
2021/05/28 04:30:53;;;;;;;136.50;13.13;;;8.70;99.90;;;;;;5007651;28;20026;-55
2021/05/28 04:33:18;;;;;;;87.38;11.73;;;9.10;99.90;;;;;;5018168;28;20044;-54
2021/05/28 04:35:44;;;;;;;92.25;9.57;;;9.40;99.90;;;;;;5013402;28;20018;-54
2021/05/28 04:38:09;;;;;;;98.03;8.15;;;9.60;99.90;;;;;;5016470;28;20026;-58
2021/05/28 04:40:35;;;;;;;99.40;8.15;;;9.90;99.90;;;;;;5013205;28;20030;-57
2021/05/28 04:43:01;;;;;;;123.43;11.38;;;10.10;99.90;;;;;;5017706;28;20029;-59
2021/05/28 04:45:27;;;;;;;280.70;13.57;;;10.30;99.90;;;;;;5014023;28;20035;-58
2021/05/28 04:47:52;;;;;;;178.90;12.13;;;10.40;99.90;;;;;;5015192;28;20503;-58
2021/05/28 04:50:18;;;;;;;188.63;9.88;;;10.10;99.90;;;;;;5015984;28;20022;-57
2021/05/28 04:52:45;;;;;;;229.05;11.13;;;9.80;99.90;;;;;;5021743;28;20390;-57
2021/05/28 04:55:12;;;;;;;332.95;14.23;;;9.50;99.90;;;;;;5016615;28;20025;-58
2021/05/28 04:57:37;;;;;;;296.27;15.15;;;9.10;99.90;;;;;;5015173;28;20026;-58
2021/05/28 05:00:08;;;;;;;314.55;15.40;;;8.80;99.90;;;;;;5021525;28;20368;-55
2021/05/28 05:02:34;;;;;;;56.58;7.97;;;8.70;99.90;;;;;;5019113;28;20021;-58
2021/05/28 05:04:59;;;;;;;147.90;10.77;;;8.50;99.90;;;;;;5021124;28;20037;-59
2021/05/28 05:07:25;;;;;;;322.90;16.52;;;8.60;99.90;;;;;;5005640;28;20053;-57
2021/05/28 05:09:51;;;;;;;177.85;11.93;;;8.90;99.90;;;;;;5012043;28;20018;-59
2021/05/28 05:12:16;;;;;;;221.27;11.88;;;9.60;99.90;;;;;;5021330;28;20054;-57
2021/05/28 05:14:42;;;;;;;178.65;9.35;;;10.30;99.90;;;;;;5014841;28;20089;-57
2021/05/28 05:17:07;;;;;;;13.55;5.50;;;11.20;99.90;;;;;;5012944;28;20495;-55
2021/05/28 05:19:33;;;;;;;5.82;4.65;;;12.20;99.90;;;;;;5019085;28;20033;-58
2021/05/28 05:21:58;;;;;;;4.53;3.95;;;13.80;99.90;;;;;;5021534;28;20113;-57
2021/05/28 05:24:24;;;;;;;9.35;4.57;;;15.80;99.90;;;;;;5020294;28;20034;-57
2021/05/28 05:26:49;;;;;;;4.03;3.25;;;17.10;99.90;;;;;;5014622;28;20483;-58
2021/05/28 05:29:15;;;;;;;4.57;3.15;;;18.20;99.90;;;;;;5008955;28;20030;-59
2021/05/28 05:31:41;;;;;;;2.75;2.53;;;18.60;99.20;;;;;;5016027;28;20025;-57
2021/05/28 05:34:07;;;;;;;5.70;3.65;;;20.20;96.70;;;;;;5016050;28;20022;-58
2021/05/28 05:36:35;;;;;;;2.95;2.38;;;20.50;96.10;;;;;;5018281;28;20071;-59
2021/05/28 05:39:01;;;;;;;5.18;2.55;;;20.40;92.70;;;;;;5015834;28;20014;-56
2021/05/28 05:41:27;;;;;;;4.20;2.60;;;20.50;92.50;;;;;;5021044;28;20594;-58
2021/05/28 05:43:52;;;;;;;3.67;2.08;;;21.00;91.20;;;;;;5023423;28;20045;-59
2021/05/28 05:46:18;;;;;;;2.30;2.10;;;21.80;91.50;;;;;;5021414;28;20184;-56
2021/05/28 05:48:43;;;;;;;4.07;2.72;;;21.70;87.70;;;;;;5021758;28;20103;-59
2021/05/28 05:51:09;;;;;;;3.55;2.50;;;21.80;90.80;;;;;;5022527;28;20032;-56
2021/05/28 05:53:35;;;;;;;3.00;2.70;;;21.90;87.70;;;;;;5015108;28;20030;-59
2021/05/28 05:56:00;;;;;;;4.63;2.45;;;22.60;83.80;;;;;;5015547;28;20039;-58
2021/05/28 05:58:26;;;;;;;3.08;2.22;;;22.40;84.30;;;;;;5024563;28;20033;-57
2021/05/28 06:00:52;;;;;;;3.58;2.65;;;22.30;83.50;;;;;;5020128;28;20122;-59
2021/05/28 06:03:17;;;;;;;3.75;2.50;;;23.90;81.20;;;;;;5019408;28;20109;-59
2021/05/28 06:05:44;;;;;;;2.92;2.72;;;23.30;77.70;;;;;;5011120;28;20069;-58
2021/05/28 06:08:09;;;;;;;4.40;2.72;;;23.10;76.90;;;;;;5003736;28;20045;-57
2021/05/28 06:10:35;;;;;;;2.92;2.53;;;23.40;72.20;;;;;;5013210;28;20018;-60
2021/05/28 06:13:02;;;;;;;6.60;3.38;;;23.90;78.10;;;;;;5010293;28;20029;-60
2021/05/28 06:15:28;;;;;;;3.00;2.70;;;23.80;73.60;;;;;;5014607;28;20050;-59
2021/05/28 06:17:54;;;;;;;5.72;3.00;;;24.90;73.60;;;;;;5016199;28;20057;-59
2021/05/28 06:20:19;;;;;;;4.82;3.00;;;25.30;63.60;;;;;;5025886;28;20029;-59
2021/05/28 06:22:47;;;;;;;3.85;2.58;;;24.50;72.40;;;;;;5011687;28;20117;-60
2021/05/28 06:25:12;;;;;;;4.35;3.15;;;25.50;68.70;;;;;;5006403;28;20491;-59
2021/05/28 06:27:38;;;;;;;7.07;3.08;;;25.20;68.80;;;;;;5008838;28;20036;-59
2021/05/28 06:30:04;;;;;;;5.43;3.08;;;25.90;64.90;;;;;;5012751;28;20415;-60
2021/05/28 06:32:30;;;;;;;5.38;2.95;;;25.50;64.10;;;;;;5028903;28;20026;-60
2021/05/28 06:34:55;;;;;;;5.90;3.38;;;26.00;62.30;;;;;;4976217;28;20116;-57
2021/05/28 06:37:21;;;;;;;5.88;3.55;;;25.40;62.50;;;;;;4991206;28;20039;-57
2021/05/28 06:39:46;;;;;;;6.22;4.45;;;26.60;58.90;;;;;;4994000;28;20164;-55
2021/05/28 06:42:12;;;;;;;8.45;4.43;;;26.10;58.20;;;;;;5001996;28;20062;-58
2021/05/28 06:44:37;;;;;;;6.70;4.05;;;26.00;59.40;;;;;;4993429;28;20030;-57
2021/05/28 06:47:03;;;;;;;7.47;4.05;;;25.50;56.90;;;;;;5003275;28;20037;-59
2021/05/28 06:49:28;;;;;;;4.95;3.67;;;25.80;60.80;;;;;;4995491;28;20034;-58
2021/05/28 06:51:54;;;;;;;4.88;4.00;;;26.80;58.50;;;;;;4998870;28;20161;-60
2021/05/28 06:54:20;;;;;;;7.03;4.22;;;25.80;56.80;;;;;;4995714;28;20045;-60
2021/05/28 06:56:45;;;;;;;6.75;4.47;;;26.60;57.10;;;;;;4991651;28;20038;-58
2021/05/28 06:59:11;;;;;;;8.57;4.68;;;26.90;56.40;;;;;;4995961;28;20128;-59
2021/05/28 07:01:37;;;;;;;9.60;4.38;;;27.60;55.60;;;;;;4997136;28;20026;-59
2021/05/28 07:04:04;;;;;;;8.90;5.78;;;28.70;53.10;;;;;;4999905;28;20129;-61
2021/05/28 07:06:30;;;;;;;6.38;4.13;;;29.10;53.20;;;;;;4991173;28;20045;-57
2021/05/28 07:08:56;;;;;;;6.00;4.20;;;28.90;47.60;;;;;;4987564;28;20019;-60
2021/05/28 07:11:23;;;;;;;8.10;3.90;;;28.50;51.10;;;;;;4990432;28;20026;-59
2021/05/28 07:13:48;;;;;;;11.30;4.45;;;27.70;49.00;;;;;;4989587;28;20088;-60
2021/05/28 07:16:14;;;;;;;5.90;4.07;;;27.30;48.00;;;;;;4990574;28;20034;-59
2021/05/28 07:18:40;;;;;;;6.78;4.22;;;26.70;51.20;;;;;;4990893;28;20514;-60
2021/05/28 07:21:06;;;;;;;8.52;4.40;;;25.70;53.10;;;;;;4996220;28;20561;-59
2021/05/28 07:23:32;;;;;;;7.55;4.88;;;24.50;55.10;;;;;;4999306;28;20109;-57
2021/05/28 07:26:00;;;;;;;7.32;4.45;;;24.70;57.60;;;;;;4999317;28;20030;-60
2021/05/28 07:28:27;;;;;;;6.88;4.22;;;24.20;56.90;;;;;;4986894;28;20488;-60
2021/05/28 07:30:53;;;;;;;9.75;4.47;;;24.40;57.00;;;;;;4997924;28;20036;-57
2021/05/28 07:33:18;;;;;;;6.28;3.67;;;24.10;54.70;;;;;;4993114;28;20038;-59
2021/05/28 07:35:44;;;;;;;10.32;5.05;;;24.60;56.70;;;;;;4972061;28;20097;-58
2021/05/28 07:38:09;;;;;;;8.00;4.00;;;24.80;52.70;;;;;;4991033;28;20026;-58
2021/05/28 07:40:35;;;;;;;6.20;4.00;;;24.50;55.50;;;;;;4995237;28;20031;-59
2021/05/28 07:43:01;;;;;;;7.75;4.63;;;25.00;55.20;;;;;;4999071;28;20181;-60
2021/05/28 07:45:27;;;;;;;5.60;3.90;;;25.40;56.50;;;;;;4990255;28;20043;-60
2021/05/28 07:47:53;;;;;;;9.68;4.28;;;25.40;55.20;;;;;;4991385;28;20034;-58
2021/05/28 07:50:18;;;;;;;9.85;4.30;;;24.30;56.60;;;;;;4996218;28;20094;-58
2021/05/28 07:52:44;;;;;;;7.47;4.47;;;24.00;55.70;;;;;;5000448;28;20476;-58
2021/05/28 07:55:11;;;;;;;5.70;4.10;;;22.90;57.50;;;;;;4994366;28;20029;-58
2021/05/28 07:57:37;;;;;;;5.30;4.25;;;23.40;58.00;;;;;;4989652;28;20053;-60
2021/05/28 08:00:05;;;;;;;5.20;3.85;;;23.60;58.50;;;;;;4996727;28;20551;-58
2021/05/28 08:02:30;;;;;;;7.30;4.00;;;24.00;57.20;;;;;;4999286;28;20034;-60
2021/05/28 08:04:56;;;;;;;8.20;4.22;;;25.00;58.30;;;;;;4997461;28;20407;-58
2021/05/28 08:07:22;;;;;;;6.93;3.92;;;25.50;54.30;;;;;;4997242;28;20040;-57
2021/05/28 08:09:49;;;;;;;4.95;2.70;;;25.80;54.90;;;;;;4993088;28;20612;-59
2021/05/28 08:12:15;;;;;;;6.07;3.72;;;27.90;50.20;;;;;;4999581;28;20037;-60
2021/05/28 08:14:41;;;;;;;4.68;3.05;;;28.30;48.90;;;;;;5000591;28;20489;-59
2021/05/28 08:17:06;;;;;;;5.18;2.70;;;27.80;50.60;;;;;;4991111;28;20034;-58
2021/05/28 08:19:32;;;;;;;5.40;2.83;;;27.80;49.50;;;;;;4995161;28;20038;-58
2021/05/28 08:21:57;;;;;;;7.55;3.65;;;27.70;47.90;;;;;;4987667;28;20080;-59
2021/05/28 08:24:24;;;;;;;5.53;3.65;;;28.60;48.40;;;;;;4989989;28;20042;-60
2021/05/28 08:26:50;;;;;;;7.13;3.60;;;27.50;47.50;;;;;;4996893;28;20038;-60
2021/05/28 08:29:15;;;;;;;4.25;3.25;;;26.50;49.30;;;;;;4990369;28;20380;-60
2021/05/28 08:31:41;;;;;;;5.10;3.60;;;27.20;47.80;;;;;;4995500;28;20517;-60
2021/05/28 08:34:06;;;;;;;5.05;2.28;;;28.10;47.20;;;;;;4982225;28;20056;-60
2021/05/28 08:36:32;;;;;;;5.38;2.70;;;28.20;47.40;;;;;;4993759;28;20035;-61
2021/05/28 08:38:57;;;;;;;5.43;2.78;;;28.30;45.30;;;;;;4997610;28;20029;-60
2021/05/28 08:41:23;;;;;;;6.03;3.20;;;28.20;45.90;;;;;;4994355;28;20030;-61
2021/05/28 08:43:49;;;;;;;4.95;2.38;;;28.20;44.70;;;;;;4999916;28;20049;-60
2021/05/28 08:46:16;;;;;;;3.17;2.60;;;29.50;45.80;;;;;;4995346;28;20031;-59
2021/05/28 08:48:42;;;;;;;4.85;2.83;;;28.80;46.50;;;;;;4989449;28;20076;-60
2021/05/28 08:51:08;;;;;;;5.00;2.70;;;28.90;48.40;;;;;;5001113;28;20175;-60
2021/05/28 08:53:34;;;;;;;3.00;2.35;;;29.30;45.90;;;;;;4985890;28;20504;-60
2021/05/28 08:55:59;;;;;;;4.25;2.60;;;28.80;44.30;;;;;;4989806;28;20091;-61
2021/05/28 08:58:26;;;;;;;4.45;2.50;;;28.70;45.60;;;;;;4998411;28;20073;-60
2021/05/28 09:00:52;;;;;;;5.28;2.97;;;29.10;42.50;;;;;;4990830;28;20391;-56
2021/05/28 09:03:31;;;;;;;3.60;2.17;;;28.40;44.70;;;;;;4993083;28;20130;-59
2021/05/28 09:06:03;;;;;;;3.42;2.20;;;28.40;46.30;;;;;;4994817;28;20124;-59
2021/05/28 09:08:30;;;;;;;3.80;2.05;;;28.00;45.50;;;;;;4991848;28;20061;-58
2021/05/28 09:11:08;;;;;;;5.03;2.17;;;28.20;45.30;;;;;;4998334;28;20018;-58
2021/05/28 09:13:42;;;;;;;4.00;2.15;;;28.50;46.40;;;;;;5000307;28;20568;-57
2021/05/28 09:16:15;;;;;;;3.38;2.00;;;27.20;44.50;;;;;;4999773;28;20488;-58
2021/05/28 09:18:42;;;;;;;2.60;1.95;;;27.40;47.10;;;;;;5002626;28;20044;-58
2021/05/28 09:21:08;;;;;;;2.08;1.58;;;28.40;46.10;;;;;;4996333;28;20097;-58
2021/05/28 09:23:34;;;;;;;5.05;1.90;;;29.50;45.50;;;;;;5000968;28;20553;-58
2021/05/28 09:26:08;;;;;;;3.65;2.53;;;29.80;45.10;;;;;;4995592;28;20034;-58
2021/05/28 09:28:48;;;;;;;3.70;2.40;;;29.50;43.50;;;;;;4986682;28;20076;-58
2021/05/28 09:31:14;;;;;;;5.40;2.15;;;29.30;45.10;;;;;;4986952;28;20037;-58
2021/05/28 09:33:43;;;;;;;4.53;2.58;;;29.20;43.00;;;;;;4989089;28;20030;-59
2021/05/28 09:36:17;;;;;;;5.97;2.70;;;28.00;42.20;;;;;;5005482;28;20041;-56
2021/05/28 09:39:00;;;;;;;3.38;2.65;;;27.80;47.10;;;;;;5019055;28;20026;-60
2021/05/28 09:41:57;;;;;;;5.20;2.67;;;27.00;47.40;;;;;;5021976;28;20475;-58
2021/05/28 09:44:24;;;;;;;2.95;2.15;;;26.50;48.10;;;;;;5012521;28;20030;-56
2021/05/28 09:47:07;;;;;;;4.50;2.20;;;26.30;49.10;;;;;;5019014;28;20036;-56
2021/05/28 09:49:34;;;;;;;;;;;26.00;47.00;;;;;;5010089;28;20517;-58
2021/05/28 09:52:07;;;;;;;4.28;2.70;;;25.40;49.60;;;;;;5021416;28;19924;-56
2021/05/28 09:54:33;;;;;;;;;;;24.60;53.20;;;;;;5016117;28;20029;-58
2021/05/28 09:56:58;;;;;;;4.18;2.30;;;24.20;54.10;;;;;;5020889;28;19913;-59
2021/05/28 09:59:24;;;;;;;3.60;2.67;;;25.10;50.60;;;;;;5015428;28;20022;-58
2021/05/28 10:02:02;;;;;;;6.75;2.88;;;25.70;51.70;;;;;;5018862;28;20045;-58
2021/05/28 10:04:29;;;;;;;4.13;2.97;;;25.70;51.70;;;;;;5016183;28;20104;-55
2021/05/28 10:06:55;;;;;;;4.03;2.35;;;25.70;46.90;;;;;;5020275;28;20021;-57
2021/05/28 10:09:22;;;;;;;5.88;2.03;;;24.70;50.60;;;;;;5019071;28;20034;-59
2021/05/28 10:11:48;;;;;;;7.03;2.00;;;25.00;48.50;;;;;;5020780;28;20033;-54
2021/05/28 10:14:14;;;;;;;4.82;2.00;;;24.50;49.60;;;;;;5021085;28;20038;-55
2021/05/28 10:16:39;;;;;;;4.93;2.15;;;24.50;51.00;;;;;;5014312;28;20045;-60
2021/05/28 10:19:06;;;;;;;4.80;1.90;;;24.50;46.90;;;;;;5019307;28;20032;-59
2021/05/28 10:21:32;;;;;;;5.28;1.98;;;23.90;51.70;;;;;;5013735;28;20482;-59
2021/05/28 10:23:59;;;;;;;8.77;2.25;;;23.60;49.70;;;;;;5009701;28;20394;-57
2021/05/28 10:26:34;;;;;;;2.95;2.05;;;23.30;53.00;;;;;;5010679;28;20038;-59
2021/05/28 10:29:00;;;;;;;6.10;2.25;;;23.40;48.60;;;;;;5008168;28;20033;-57
2021/05/28 10:31:55;;;;;;;3.05;1.80;;;23.40;51.70;;;;;;5013581;28;20038;-55
2021/05/28 10:34:22;;;;;;;4.90;2.22;;;23.30;50.60;;;;;;5014849;28;20476;-59
2021/05/28 10:36:48;;;;;;;3.80;2.15;;;22.80;49.90;;;;;;4999420;28;20160;-55
2021/05/28 10:39:16;;;;;;;15.70;2.78;;;22.90;50.40;;;;;;5017406;28;20057;-60
2021/05/28 10:41:43;;;;;;;4.10;2.58;;;22.40;51.40;;;;;;5011047;28;20627;-58
2021/05/28 10:44:14;;;;;;;6.40;2.63;;;22.00;50.40;;;;;;5007644;28;20129;-58
2021/05/28 10:46:54;;;;;;;4.95;2.55;;;21.40;54.40;;;;;;5016636;28;20033;-58
2021/05/28 10:49:35;;;;;;;3.85;2.40;;;21.60;52.40;;;;;;5008143;28;20045;-57
2021/05/28 10:52:03;;;;;;;4.10;2.38;;;21.90;53.90;;;;;;5011927;28;20056;-58
2021/05/28 10:54:31;;;;;;;9.02;3.45;;;21.80;54.80;;;;;;5014415;28;20448;-58
2021/05/28 10:57:16;;;;;;;3.75;2.22;;;22.10;55.00;;;;;;5015475;28;20492;-59
2021/05/28 10:59:45;;;;;;;2.35;1.60;;;22.20;54.40;;;;;;5010067;28;20399;-58
2021/05/28 11:02:11;;;;;;;4.10;1.52;;;22.90;51.50;;;;;;5015759;28;20474;-58
2021/05/28 11:04:37;;;;;;;4.60;1.63;;;22.90;51.00;;;;;;5007181;28;20045;-59
2021/05/28 11:07:03;;;;;;;2.97;2.33;;;22.60;50.90;;;;;;5015847;28;20364;-57
2021/05/28 11:09:36;;;;;;;4.20;2.78;;;22.40;50.20;;;;;;5000709;28;20049;-59
2021/05/28 11:12:11;;;;;;;11.48;3.00;;;21.90;52.00;;;;;;5009262;28;20053;-59
2021/05/28 11:15:14;;;;;;;3.33;2.70;;;21.50;56.00;;;;;;5011757;28;20022;-61
2021/05/28 11:17:58;;;;;;;2.38;1.88;;;21.30;56.70;;;;;;5007873;28;20068;-60
2021/05/28 11:20:33;;;;;;;2.75;2.00;;;21.30;54.20;;;;;;5006933;28;20041;-58
2021/05/28 11:23:01;;;;;;;2.55;1.92;;;21.40;50.00;;;;;;5000368;28;20029;-57
2021/05/28 11:25:32;;;;;;;5.85;2.10;;;21.50;50.00;;;;;;5007182;28;20037;-60
2021/05/28 11:28:10;;;;;;;5.10;2.20;;;21.20;52.20;;;;;;5010953;28;20049;-55
2021/05/28 11:30:39;;;;;;;2.72;2.05;;;20.70;53.00;;;;;;5003346;28;20048;-58
2021/05/28 11:33:05;;;;;;;2.67;2.33;;;20.90;54.90;;;;;;5011436;28;20104;-58
2021/05/28 11:35:38;;;;;;;4.35;1.98;;;21.20;53.50;;;;;;4992234;28;20054;-59
2021/05/28 11:38:12;;;;;;;3.75;2.00;;;21.30;50.80;;;;;;5012993;28;20026;-59
2021/05/28 11:40:41;;;;;;;3.17;2.00;;;21.10;52.90;;;;;;5014721;28;20116;-59
2021/05/28 11:43:10;;;;;;;4.13;1.80;;;21.50;53.40;;;;;;5011033;28;20056;-58
2021/05/28 11:45:38;;;;;;;3.67;1.98;;;21.80;52.10;;;;;;5015329;28;20061;-58
2021/05/28 11:48:11;;;;;;;3.85;2.60;;;21.70;50.10;;;;;;5017664;28;20064;-58
2021/05/28 11:50:40;;;;;;;5.15;1.70;;;21.80;50.20;;;;;;5008238;28;20030;-58
2021/05/28 11:53:10;;;;;;;3.17;1.58;;;22.00;51.40;;;;;;5004261;28;20084;-58
2021/05/28 11:55:42;;;;;;;3.35;1.60;;;22.20;50.80;;;;;;5001881;28;20042;-57
2021/05/28 11:58:08;;;;;;;2.13;1.58;;;22.20;49.40;;;;;;5020189;28;20032;-59
2021/05/28 12:00:33;;;;;;;6.43;2.13;;;21.90;50.90;;;;;;5015740;28;20038;-59
2021/05/28 12:03:00;;;;;;;2.78;2.15;;;21.90;52.40;;;;;;5020670;28;20453;-53
2021/05/28 12:05:39;;;;;;;3.35;2.05;;;22.10;51.20;;;;;;5012118;28;20458;-58
2021/05/28 12:08:23;;;;;;;3.25;1.65;;;22.10;49.80;;;;;;5006916;28;20070;-57
2021/05/28 12:10:52;;;;;;;3.53;1.80;;;21.90;50.10;;;;;;5003586;28;20033;-58
2021/05/28 12:13:24;;;;;;;4.55;1.65;;;22.10;51.30;;;;;;5004734;28;20026;-58
2021/05/28 12:16:20;;;;;;;2.00;1.80;;;22.10;54.10;;;;;;5004896;28;20088;-58
2021/05/28 12:18:46;;;;;;;3.20;1.83;;;22.50;50.70;;;;;;5008802;28;20085;-57
2021/05/28 12:21:17;;;;;;;2.83;1.70;;;22.20;51.60;;;;;;4999814;28;20995;-59
2021/05/28 12:23:58;;;;;;;2.80;1.85;;;21.80;52.60;;;;;;5013705;28;20030;-59
2021/05/28 12:26:29;;;;;;;4.18;1.88;;;21.40;54.30;;;;;;5010177;28;20025;-54
2021/05/28 12:28:57;;;;;;;3.45;1.58;;;21.60;50.40;;;;;;5020739;28;20025;-59
2021/05/28 12:31:30;;;;;;;8.90;2.17;;;21.10;53.60;;;;;;5011829;28;20034;-58
2021/05/28 12:34:06;;;;;;;3.67;1.67;;;20.80;55.60;;;;;;5010292;28;20033;-57
2021/05/28 12:36:43;;;;;;;5.25;2.10;;;20.60;53.60;;;;;;4981342;28;20042;-58
2021/05/28 12:39:22;;;;;;;5.43;1.67;;;20.50;54.00;;;;;;5003483;28;20060;-57
2021/05/28 12:41:49;;;;;;;4.13;2.00;;;20.50;53.40;;;;;;5006993;28;20033;-57
2021/05/28 12:44:20;;;;;;;4.07;1.80;;;20.90;52.20;;;;;;5010715;28;20887;-59
2021/05/28 12:46:55;;;;;;;3.42;1.95;;;21.20;52.50;;;;;;5011859;28;20503;-58